Time;durP1;ratioP1;P1;durP2;ratioP2;P2;SDS_P1;SDS_P2;PMS_P1;PMS_P2;Temp;Humidity;BMP_temperature;BMP_pressure;BME280_temperature;BME280_humidity;BME280_pressure;Samples;Min_cycle;Max_cycle;Signal;HPM_P1;HPM_P2
2022/09/18 00:00:54;;;;;;;15.15;2.38;;;;;;;11.03;100.00;101561.53;5030260;28;20029;-63
2022/09/18 00:03:19;;;;;;;13.20;2.58;;;;;;;11.03;100.00;101553.28;5024699;28;20032;-63
2022/09/18 00:05:44;;;;;;;11.82;2.80;;;;;;;11.00;100.00;101556.47;5030186;28;20033;-65
2022/09/18 00:08:09;;;;;;;9.13;2.88;;;;;;;10.98;100.00;101555.00;5026522;28;20724;-63
2022/09/18 00:10:43;;;;;;;12.70;3.67;;;;;;;10.97;100.00;101554.16;5030976;28;20076;-63
2022/09/18 00:13:09;;;;;;;8.32;2.38;;;;;;;10.98;100.00;101553.09;5028705;28;20033;-64
2022/09/18 00:15:35;;;;;;;12.05;2.67;;;;;;;10.91;100.00;101555.84;5029853;28;20057;-64
2022/09/18 00:18:01;;;;;;;11.75;2.72;;;;;;;10.93;100.00;101538.31;5027049;28;20128;-63
2022/09/18 00:20:26;;;;;;;13.07;3.30;;;;;;;10.90;100.00;101545.09;5031500;28;20121;-64
2022/09/18 00:22:51;;;;;;;12.68;3.00;;;;;;;10.93;100.00;101552.03;5025050;28;20040;-63
2022/09/18 00:25:16;;;;;;;12.07;2.75;;;;;;;10.90;100.00;101545.94;5027145;28;20032;-63
2022/09/18 00:27:42;;;;;;;14.88;3.35;;;;;;;10.89;100.00;101555.22;5028547;28;20040;-65
2022/09/18 00:30:08;;;;;;;13.55;3.15;;;;;;;10.94;100.00;101545.47;5029085;28;20045;-64
2022/09/18 00:32:33;;;;;;;17.00;3.75;;;;;;;10.88;100.00;101537.03;5028269;28;20036;-63
2022/09/18 00:34:58;;;;;;;12.50;4.05;;;;;;;10.88;100.00;101538.94;5029630;28;20038;-64
2022/09/18 00:37:24;;;;;;;12.55;3.35;;;;;;;10.87;100.00;101546.34;5028301;28;20084;-63
2022/09/18 00:39:49;;;;;;;13.48;4.22;;;;;;;10.84;100.00;101538.53;5028584;28;20165;-63
2022/09/18 00:42:18;;;;;;;15.77;4.72;;;;;;;10.88;100.00;101550.78;5028337;28;20033;-64
2022/09/18 00:44:45;;;;;;;11.55;3.83;;;;;;;10.88;100.00;101555.44;5029845;28;20031;-63
2022/09/18 00:47:10;;;;;;;14.98;3.50;;;;;;;10.90;100.00;101554.19;5029751;28;20549;-63
2022/09/18 00:49:43;;;;;;;14.07;3.30;;;;;;;10.90;100.00;101556.09;5030025;28;20045;-63
2022/09/18 00:52:10;;;;;;;18.85;3.30;;;;;;;10.88;100.00;101550.78;5027872;28;20044;-63
2022/09/18 00:54:38;;;;;;;11.88;3.33;;;;;;;10.91;100.00;101553.13;5028593;28;20071;-64
2022/09/18 00:57:08;;;;;;;12.70;3.45;;;;;;;10.93;100.00;101563.88;5023024;28;20029;-63
2022/09/18 00:59:35;;;;;;;13.38;3.47;;;;;;;10.93;100.00;101561.13;5028615;28;20041;-63
2022/09/18 01:02:01;;;;;;;14.75;3.35;;;;;;;10.95;100.00;101558.16;5026379;28;20093;-63
2022/09/18 01:04:28;;;;;;;15.38;3.67;;;;;;;10.93;100.00;101555.63;5029848;28;20468;-63
2022/09/18 01:07:17;;;;;;;11.30;3.65;;;;;;;10.96;100.00;101555.22;5028957;28;20026;-63
2022/09/18 01:10:12;;;;;;;19.23;3.65;;;;;;;10.96;100.00;101552.47;5028560;28;20029;-65
2022/09/18 01:12:51;;;;;;;11.68;3.70;;;;;;;10.95;100.00;101549.91;5028155;28;20345;-64
2022/09/18 01:16:00;;;;;;;13.00;3.97;;;;;;;10.96;100.00;101562.63;5028663;28;20045;-64
2022/09/18 01:18:48;;;;;;;13.25;2.80;;;;;;;10.91;100.00;101552.28;5007919;28;20049;-63
2022/09/18 01:21:16;;;;;;;14.07;3.28;;;;;;;10.89;100.00;101546.13;5026817;28;20412;-65
2022/09/18 01:24:09;;;;;;;14.77;3.13;;;;;;;10.91;100.00;101536.63;5027099;28;20047;-63
2022/09/18 01:26:44;;;;;;;12.20;3.17;;;;;;;10.88;100.00;101564.53;5020092;28;20091;-64
2022/09/18 01:29:35;;;;;;;12.98;2.67;;;;;;;10.90;100.00;101547.84;5028642;28;20084;-64
2022/09/18 01:32:31;;;;;;;14.75;3.53;;;;;;;10.90;100.00;101540.44;5025631;28;20033;-64
2022/09/18 01:35:18;;;;;;;12.02;2.80;;;;;;;10.90;100.00;101545.94;5019796;28;20034;-64
2022/09/18 01:37:46;;;;;;;13.05;2.95;;;;;;;10.87;100.00;101546.34;5029452;28;20029;-63
2022/09/18 01:40:20;;;;;;;13.75;2.75;;;;;;;10.84;100.00;101548.69;5027370;28;20060;-64
2022/09/18 01:42:48;;;;;;;14.45;2.47;;;;;;;10.85;100.00;101545.72;5028716;28;20495;-63
2022/09/18 01:45:19;;;;;;;14.40;2.92;;;;;;;10.86;100.00;101536.44;5028929;28;20021;-63
2022/09/18 01:47:56;;;;;;;15.15;2.65;;;;;;;10.85;100.00;101543.00;5026715;28;20029;-63
2022/09/18 01:50:26;;;;;;;12.90;2.50;;;;;;;10.82;100.00;101540.66;5029176;28;20415;-63
2022/09/18 01:52:58;;;;;;;11.13;2.75;;;;;;;10.81;100.00;101536.22;5027963;28;20564;-65
2022/09/18 01:55:27;;;;;;;8.02;2.10;;;;;;;10.83;100.00;101538.75;5025952;28;20025;-64
2022/09/18 01:58:11;;;;;;;13.07;2.60;;;;;;;10.84;100.00;101533.03;5009268;28;20112;-64
2022/09/18 02:00:42;;;;;;;13.30;2.65;;;;;;;10.85;100.00;101537.50;5012598;28;20040;-64
2022/09/18 02:03:13;;;;;;;10.18;2.70;;;;;;;10.88;100.00;101549.94;5026769;28;20088;-63
2022/09/18 02:05:57;;;;;;;14.88;3.97;;;;;;;10.88;100.00;101534.28;5026796;28;20129;-64
2022/09/18 02:08:46;;;;;;;13.32;2.60;;;;;;;10.89;100.00;101541.47;5028153;28;20108;-64
2022/09/18 02:11:15;;;;;;;10.75;3.00;;;;;;;10.86;100.00;101533.69;5026779;28;20033;-63
2022/09/18 02:13:42;;;;;;;;;;;;;;;10.95;100.00;101537.03;5028126;28;20033;-63
2022/09/18 02:16:13;;;;;;;15.55;3.42;;;;;;;10.94;100.00;101529.84;5027244;28;19967;-63
2022/09/18 02:18:44;;;;;;;16.42;4.50;;;;;;;10.91;100.00;101530.28;5028776;28;20045;-64
2022/09/18 02:21:12;;;;;;;14.00;3.92;;;;;;;10.89;100.00;101522.22;5023737;28;20480;-64
2022/09/18 02:23:39;;;;;;;17.10;5.55;;;;;;;10.86;100.00;101516.34;5026452;28;20030;-64
2022/09/18 02:26:07;;;;;;;16.40;5.60;;;;;;;10.86;100.00;101516.34;5025331;28;20038;-64
2022/09/18 02:28:33;;;;;;;14.32;6.00;;;;;;;10.85;100.00;101514.66;5026896;28;20650;-64
2022/09/18 02:30:59;;;;;;;19.15;7.47;;;;;;;10.83;100.00;101512.13;5026786;28;20463;-64
2022/09/18 02:33:29;;;;;;;21.17;7.13;;;;;;;10.85;100.00;101509.16;5025353;28;20037;-64
2022/09/18 02:36:23;;;;;;;19.05;7.90;;;;;;;10.83;100.00;101512.13;5023516;28;20040;-63
2022/09/18 02:38:51;;;;;;;17.73;7.95;;;;;;;10.82;100.00;101510.44;5017811;28;20033;-65
2022/09/18 02:41:36;;;;;;;;;;;;;;;10.88;100.00;101501.31;5022711;28;20033;-65
2022/09/18 02:44:29;;;;;;;21.33;7.65;;;;;;;10.83;100.00;101503.03;5024834;28;20280;-64
2022/09/18 02:47:08;;;;;;;21.50;7.60;;;;;;;10.81;100.00;101508.75;5018095;28;20094;-63
2022/09/18 02:50:06;;;;;;;17.45;8.02;;;;;;;10.83;100.00;101519.50;5027084;28;20694;-63
2022/09/18 02:52:45;;;;;;;21.92;7.80;;;;;;;10.86;100.00;101510.84;5027667;28;20045;-63
2022/09/18 02:55:24;;;;;;;23.70;7.82;;;;;;;10.86;100.00;101508.09;5026645;28;20060;-64
2022/09/18 02:57:59;;;;;;;20.27;7.65;;;;;;;10.86;100.00;101499.84;5027191;28;20064;-64
2022/09/18 03:00:27;;;;;;;16.02;8.55;;;;;;;10.84;100.00;101497.31;5027928;28;20488;-64
2022/09/18 03:02:57;;;;;;;21.73;6.93;;;;;;;10.84;100.00;101502.81;5027725;28;20484;-64
2022/09/18 03:05:22;;;;;;;19.70;6.85;;;;;;;10.83;100.00;101497.53;5027243;28;20392;-63
2022/09/18 03:07:48;;;;;;;19.77;6.90;;;;;;;10.81;100.00;101494.16;5027293;28;20033;-64
2022/09/18 03:10:13;;;;;;;17.55;6.18;;;;;;;10.79;100.00;101504.50;5026779;28;20042;-63
2022/09/18 03:12:38;;;;;;;16.60;6.13;;;;;;;10.79;100.00;101499.03;5027446;28;20025;-64
2022/09/18 03:15:05;;;;;;;14.77;6.18;;;;;;;10.77;100.00;101499.25;5025437;28;20083;-63
2022/09/18 03:17:30;;;;;;;16.83;5.72;;;;;;;10.78;100.00;101500.94;5013373;28;20561;-65
2022/09/18 03:19:55;;;;;;;16.20;5.57;;;;;;;10.79;100.00;101496.28;5024026;28;20104;-63
2022/09/18 03:22:20;;;;;;;16.73;6.43;;;;;;;10.81;100.00;101494.16;5023331;28;20033;-63
2022/09/18 03:24:46;;;;;;;17.38;5.25;;;;;;;10.79;100.00;101497.13;5025615;28;20041;-64
2022/09/18 03:27:11;;;;;;;18.05;5.80;;;;;;;10.81;100.00;101481.28;5026152;28;20538;-64
2022/09/18 03:29:36;;;;;;;17.65;5.60;;;;;;;10.84;100.00;101486.31;5025671;28;20063;-64
2022/09/18 03:32:02;;;;;;;18.00;5.60;;;;;;;10.82;100.00;101485.69;5024969;28;20514;-63
2022/09/18 03:34:27;;;;;;;23.40;6.32;;;;;;;10.81;100.00;101480.44;5025636;28;20041;-64
2022/09/18 03:36:52;;;;;;;18.13;5.30;;;;;;;10.82;100.00;101485.69;5027249;28;20026;-63
2022/09/18 03:39:19;;;;;;;20.23;5.10;;;;;;;10.83;100.00;101475.56;5026110;28;20037;-63
2022/09/18 03:41:44;;;;;;;18.52;5.63;;;;;;;10.81;100.00;101484.03;5026951;28;20028;-63
2022/09/18 03:44:10;;;;;;;19.98;5.18;;;;;;;10.81;100.00;101474.94;5006706;28;20457;-63
2022/09/18 03:46:37;;;;;;;18.40;4.90;;;;;;;10.81;100.00;101481.28;5025506;28;20036;-64
2022/09/18 03:49:02;;;;;;;16.98;4.70;;;;;;;10.80;100.00;101479.59;5027279;28;20057;-65
2022/09/18 03:51:27;;;;;;;15.88;4.82;;;;;;;10.82;100.00;101473.88;5030346;28;20118;-63
2022/09/18 03:53:52;;;;;;;17.35;5.40;;;;;;;10.84;100.00;101475.31;5024818;28;20034;-63
2022/09/18 03:56:18;;;;;;;16.52;4.40;;;;;;;10.86;100.00;101466.88;5026127;28;20087;-63
2022/09/18 03:58:43;;;;;;;13.15;4.28;;;;;;;10.85;100.00;101466.03;5025204;28;20036;-64
2022/09/18 04:01:09;;;;;;;18.75;5.00;;;;;;;10.86;100.00;101469.63;5026052;28;20029;-63
2022/09/18 04:03:34;;;;;;;20.60;4.40;;;;;;;10.85;100.00;101456.97;5027232;28;20435;-63
2022/09/18 04:06:00;;;;;;;16.52;4.97;;;;;;;10.87;100.00;101461.16;5027155;28;20079;-63
2022/09/18 04:08:26;;;;;;;14.90;4.00;;;;;;;10.88;100.00;101465.59;5021210;28;20477;-63
2022/09/18 04:10:51;;;;;;;16.88;3.85;;;;;;;10.88;100.00;101462.00;5024309;28;20025;-64
2022/09/18 04:13:16;;;;;;;11.65;2.97;;;;;;;10.88;100.00;101473.84;5027845;28;20119;-64
2022/09/18 04:15:44;;;;;;;14.27;3.25;;;;;;;10.89;100.00;101472.75;5021982;28;20045;-63
2022/09/18 04:18:10;;;;;;;14.15;3.65;;;;;;;10.89;100.00;101469.19;5023120;28;20037;-64
2022/09/18 04:20:35;;;;;;;16.95;3.35;;;;;;;10.90;100.00;101462.66;5026600;28;20369;-64
2022/09/18 04:23:00;;;;;;;18.23;3.20;;;;;;;10.90;100.00;101462.66;5024055;28;20026;-65
2022/09/18 04:25:25;;;;;;;18.52;3.30;;;;;;;10.91;100.00;101456.09;5024988;28;20292;-64
2022/09/18 04:27:51;;;;;;;16.45;2.92;;;;;;;10.92;100.00;101460.50;5024386;28;20040;-63
2022/09/18 04:30:16;;;;;;;16.70;4.00;;;;;;;10.92;100.00;101463.25;5024319;28;20033;-63
2022/09/18 04:32:43;;;;;;;17.40;2.75;;;;;;;10.93;100.00;101461.34;5023691;28;20030;-62
2022/09/18 04:35:08;;;;;;;13.52;2.80;;;;;;;10.94;100.00;101465.78;5028233;28;20127;-63
2022/09/18 04:37:34;;;;;;;17.20;3.72;;;;;;;10.95;100.00;101464.72;5029252;28;20068;-65
2022/09/18 04:39:59;;;;;;;10.98;3.05;;;;;;;10.94;100.00;101463.03;5028904;28;20056;-62
2022/09/18 04:42:24;;;;;;;13.57;3.10;;;;;;;10.93;100.00;101464.94;5028897;28;20048;-62
2022/09/18 04:44:50;;;;;;;13.82;3.00;;;;;;;10.93;100.00;101472.34;5027256;28;20026;-62
2022/09/18 04:47:15;;;;;;;18.92;3.88;;;;;;;10.93;100.00;101472.34;5028665;28;20048;-62
2022/09/18 04:49:40;;;;;;;10.90;2.80;;;;;;;10.91;100.00;101469.81;5029051;28;20096;-63
2022/09/18 04:52:05;;;;;;;14.90;4.43;;;;;;;10.90;100.00;101460.75;5026514;28;20033;-63
2022/09/18 04:54:31;;;;;;;15.40;2.63;;;;;;;10.87;100.00;101463.91;5029123;28;20503;-64
2022/09/18 04:56:56;;;;;;;12.00;2.78;;;;;;;10.89;100.00;101466.44;5010392;28;20099;-63
2022/09/18 04:59:21;;;;;;;13.05;3.53;;;;;;;10.87;100.00;101465.81;5029868;28;20037;-62
2022/09/18 05:01:47;;;;;;;13.48;3.05;;;;;;;10.84;100.00;101466.25;5029740;28;20379;-65
2022/09/18 05:04:12;;;;;;;17.00;3.00;;;;;;;10.83;100.00;101467.31;5026232;28;20034;-63
2022/09/18 05:06:37;;;;;;;10.77;3.35;;;;;;;10.83;100.00;101467.31;5029031;28;20045;-63
2022/09/18 05:09:02;;;;;;;13.93;2.70;;;;;;;10.82;100.00;101468.38;5028456;28;20045;-63
2022/09/18 05:11:28;;;;;;;12.65;3.70;;;;;;;10.84;100.00;101475.31;5027155;28;20044;-63
2022/09/18 05:13:55;;;;;;;12.15;2.47;;;;;;;10.82;100.00;101469.22;5029162;28;20025;-63
2022/09/18 05:16:22;;;;;;;14.23;2.88;;;;;;;10.82;100.00;101471.97;5010075;28;20091;-63
2022/09/18 05:18:48;;;;;;;13.77;3.58;;;;;;;10.80;100.00;101468.59;5027503;28;20045;-63
2022/09/18 05:21:14;;;;;;;14.75;3.30;;;;;;;10.80;100.00;101467.75;5026314;28;20181;-64
2022/09/18 05:23:39;;;;;;;17.75;2.72;;;;;;;10.82;100.00;101468.38;5029252;28;20109;-64
2022/09/18 05:26:04;;;;;;;10.20;2.90;;;;;;;10.86;100.00;101464.97;5010588;28;20083;-63
2022/09/18 05:28:30;;;;;;;8.23;2.30;;;;;;;10.85;100.00;101467.94;5027530;28;20035;-63
2022/09/18 05:30:59;;;;;;;16.63;3.97;;;;;;;10.86;100.00;101475.13;5025993;28;20061;-64
2022/09/18 05:33:25;;;;;;;12.00;2.55;;;;;;;10.87;100.00;101471.31;5029136;28;20021;-65
2022/09/18 05:35:53;;;;;;;12.82;2.63;;;;;;;10.89;100.00;101471.94;5026356;28;20526;-65
2022/09/18 05:38:18;;;;;;;;;;;;;;;10.97;100.00;101470.84;5019699;28;20034;-64
2022/09/18 05:40:44;;;;;;;14.98;2.50;;;;;;;10.91;100.00;101465.16;5026688;28;20013;-63
2022/09/18 05:43:09;;;;;;;15.48;2.75;;;;;;;10.93;100.00;101475.09;5026795;28;20021;-63
2022/09/18 05:45:34;;;;;;;12.75;2.58;;;;;;;10.91;100.00;101476.16;5028286;28;20033;-63
2022/09/18 05:48:04;;;;;;;10.93;3.03;;;;;;;10.93;100.00;101478.69;5027398;28;20484;-62
2022/09/18 05:50:31;;;;;;;10.25;2.55;;;;;;;10.93;100.00;101475.09;5026493;28;20091;-64
2022/09/18 05:53:02;;;;;;;11.02;2.90;;;;;;;10.95;100.00;101479.31;5027411;28;20061;-63
2022/09/18 05:55:28;;;;;;;11.50;2.35;;;;;;;10.97;100.00;101479.94;5027607;28;21108;-62
2022/09/18 05:57:54;;;;;;;9.05;2.40;;;;;;;10.98;100.00;101480.78;5027168;28;20117;-63
2022/09/18 06:00:20;;;;;;;9.48;2.20;;;;;;;11.00;100.00;101481.41;5028072;28;20388;-63
2022/09/18 06:03:00;;;;;;;11.32;2.35;;;;;;;11.05;100.00;101484.31;5026365;28;20026;-63
2022/09/18 06:05:27;;;;;;;12.98;1.92;;;;;;;11.03;100.00;101487.31;5028274;28;20034;-63
2022/09/18 06:07:52;;;;;;;12.55;2.67;;;;;;;11.03;100.00;101478.22;5026837;28;20033;-63
2022/09/18 06:10:19;;;;;;;7.63;2.53;;;;;;;11.06;100.00;101475.03;5026275;28;20602;-63
2022/09/18 06:12:45;;;;;;;8.25;1.98;;;;;;;11.07;100.00;101474.81;5026100;28;20037;-63
2022/09/18 06:15:11;;;;;;;10.20;2.05;;;;;;;11.09;100.00;101477.34;5027458;28;20042;-63
2022/09/18 06:17:37;;;;;;;8.27;1.60;;;;;;;11.13;100.00;101471.19;5028056;28;20696;-62
2022/09/18 06:20:04;;;;;;;8.82;1.98;;;;;;;11.17;100.00;101466.94;5028982;28;20026;-65
2022/09/18 06:22:31;;;;;;;11.52;2.08;;;;;;;11.25;100.00;101471.31;5026775;28;20075;-66
2022/09/18 06:24:56;;;;;;;8.57;1.40;;;;;;;11.34;100.00;101466.41;5026842;28;20060;-64
2022/09/18 06:27:21;;;;;;;7.07;1.70;;;;;;;11.40;100.00;101457.28;5025575;28;20042;-64
2022/09/18 06:29:47;;;;;;;8.07;1.73;;;;;;;11.49;100.00;101453.19;5028183;28;20052;-63
2022/09/18 06:32:12;;;;;;;7.90;1.77;;;;;;;11.51;100.00;101459.34;5025435;28;20414;-64
2022/09/18 06:34:37;;;;;;;9.77;2.22;;;;;;;11.51;100.00;101459.34;5023822;28;20724;-63
2022/09/18 06:37:02;;;;;;;6.63;1.50;;;;;;;11.55;100.00;101452.31;5027139;28;20021;-64
2022/09/18 06:39:28;;;;;;;12.13;1.40;;;;;;;11.64;100.00;101447.38;5024147;28;20472;-63
2022/09/18 06:41:53;;;;;;;6.35;1.73;;;;;;;11.70;100.00;101463.00;5027141;28;20064;-64
2022/09/18 06:44:18;;;;;;;8.93;1.58;;;;;;;11.69;100.00;101473.16;5026676;28;20067;-65
2022/09/18 06:46:46;;;;;;;7.05;1.27;;;;;;;11.67;100.00;101479.97;5025918;28;20029;-63
2022/09/18 06:49:12;;;;;;;6.63;1.63;;;;;;;11.62;100.00;101479.81;5024194;28;20041;-63
2022/09/18 06:51:39;;;;;;;5.90;1.58;;;;;;;11.58;100.00;101486.81;5027061;28;20513;-65
2022/09/18 06:54:04;;;;;;;8.73;1.50;;;;;;;11.54;100.00;101488.31;5022939;28;20472;-65
2022/09/18 06:56:29;;;;;;;5.20;1.80;;;;;;;11.51;100.00;101470.34;5025985;28;20068;-63
2022/09/18 06:58:55;;;;;;;8.88;1.58;;;;;;;11.47;100.00;101474.59;5026962;28;20021;-63
2022/09/18 07:01:20;;;;;;;5.25;1.45;;;;;;;11.43;100.00;101468.69;5025831;28;20037;-63
2022/09/18 07:03:48;;;;;;;6.80;1.30;;;;;;;11.44;100.00;101458.53;5025513;28;20367;-64
2022/09/18 07:06:14;;;;;;;7.82;1.70;;;;;;;11.47;100.00;101451.75;5025837;28;20280;-63
2022/09/18 07:08:39;;;;;;;6.93;1.27;;;;;;;11.48;100.00;101456.19;5024850;28;20112;-63
2022/09/18 07:11:04;;;;;;;9.23;1.55;;;;;;;11.55;100.00;101470.72;5023573;28;20040;-66
2022/09/18 07:13:31;;;;;;;9.65;2.03;;;;;;;11.57;100.00;101474.13;5007429;28;20029;-63
2022/09/18 07:15:56;;;;;;;7.65;1.65;;;;;;;11.53;100.00;101470.97;5025715;28;20584;-65
2022/09/18 07:18:22;;;;;;;5.22;1.40;;;;;;;11.55;100.00;101470.72;5025251;28;20120;-63
2022/09/18 07:20:47;;;;;;;5.90;1.30;;;;;;;11.54;100.00;101469.88;5028325;28;20029;-62
2022/09/18 07:23:12;;;;;;;7.00;1.58;;;;;;;11.57;100.00;101479.63;5025277;28;20113;-64
2022/09/18 07:25:38;;;;;;;5.82;1.48;;;;;;;11.56;100.00;101462.28;5023114;28;20523;-63
2022/09/18 07:28:09;;;;;;;6.40;1.40;;;;;;;11.56;100.00;101461.44;5026809;28;20061;-64
2022/09/18 07:30:35;;;;;;;6.85;1.63;;;;;;;11.55;100.00;101460.56;5025069;28;20449;-63
2022/09/18 07:33:02;;;;;;;5.90;1.40;;;;;;;11.60;100.00;101457.16;5025552;28;20365;-65
2022/09/18 07:35:28;;;;;;;6.07;1.67;;;;;;;11.69;100.00;101444.81;5025139;28;20036;-63
2022/09/18 07:37:58;;;;;;;4.93;1.42;;;;;;;11.77;100.00;101454.72;5024972;28;20045;-66
2022/09/18 07:40:23;;;;;;;6.88;1.60;;;;;;;11.81;100.00;101442.16;5025800;28;20152;-63
2022/09/18 07:42:48;;;;;;;4.20;1.48;;;;;;;11.92;100.00;101434.06;5024991;28;20025;-66
2022/09/18 07:45:14;;;;;;;6.07;1.73;;;;;;;12.07;100.00;101432.88;5026754;28;20053;-63
2022/09/18 07:47:39;;;;;;;7.55;1.70;;;;;;;12.23;100.00;101437.81;5026468;28;20437;-63
2022/09/18 07:50:05;;;;;;;4.32;1.20;;;;;;;12.34;100.00;101425.19;5008786;28;20120;-63
2022/09/18 07:52:30;;;;;;;4.95;1.52;;;;;;;12.34;100.00;101430.69;5025526;28;20037;-63
2022/09/18 07:54:56;;;;;;;5.82;1.60;;;;;;;12.41;100.00;101435.06;5026027;28;20021;-63
2022/09/18 07:57:21;;;;;;;6.75;1.48;;;;;;;12.57;100.00;101433.63;5025922;28;20029;-62
2022/09/18 07:59:47;;;;;;;7.07;1.63;;;;;;;12.70;100.00;101435.38;5027876;28;20056;-63
2022/09/18 08:02:12;;;;;;;7.47;1.77;;;;;;;12.82;100.00;101443.69;5025428;28;20092;-62
2022/09/18 08:04:37;;;;;;;6.47;1.52;;;;;;;12.84;100.00;101442.41;5024947;28;20033;-63
2022/09/18 08:07:03;;;;;;;6.00;1.77;;;;;;;12.79;100.00;101450.53;5026573;28;20087;-62
2022/09/18 08:09:28;;;;;;;4.82;1.70;;;;;;;12.68;100.00;101451.31;5028542;28;20045;-63
2022/09/18 08:11:54;;;;;;;8.00;2.28;;;;;;;12.52;100.00;101451.91;5029836;28;20029;-63
2022/09/18 08:14:19;;;;;;;8.20;2.70;;;;;;;12.40;100.00;101454.56;5030573;28;20045;-63
2022/09/18 08:16:45;;;;;;;7.97;2.38;;;;;;;12.37;100.00;101458.66;5030916;28;20064;-63
2022/09/18 08:19:11;;;;;;;8.35;2.30;;;;;;;12.29;100.00;101449.81;5029133;28;20171;-63
2022/09/18 08:21:37;;;;;;;9.77;2.78;;;;;;;12.26;100.00;101451.09;5029193;28;20124;-63
2022/09/18 08:24:02;;;;;;;5.50;2.20;;;;;;;12.33;100.00;101446.38;5027601;28;20040;-63
2022/09/18 08:26:27;;;;;;;9.98;2.30;;;;;;;12.44;100.00;101444.78;5026680;28;20025;-63
2022/09/18 08:28:53;;;;;;;7.90;2.30;;;;;;;12.60;100.00;101440.59;5028943;28;20171;-64
2022/09/18 08:31:18;;;;;;;9.77;2.50;;;;;;;12.79;100.00;101433.16;5030248;28;20054;-65
2022/09/18 08:33:44;;;;;;;8.55;2.10;;;;;;;12.99;100.00;101445.59;5030625;28;20111;-63
2022/09/18 08:36:09;;;;;;;10.32;2.20;;;;;;;13.10;100.00;101443.13;5030151;28;20060;-63
2022/09/18 08:38:34;;;;;;;7.28;2.22;;;;;;;13.14;100.00;101447.97;5030786;28;20040;-64
2022/09/18 08:41:49;;;;;;;9.27;2.42;;;;;;;13.27;100.00;101443.34;5028809;28;20143;-63
2022/09/18 08:44:41;;;;;;;7.25;2.15;;;;;;;13.46;100.00;101436.72;5000880;28;20045;-64
2022/09/18 08:47:21;;;;;;;7.72;2.17;;;;;;;13.47;100.00;101453.03;5029157;28;20056;-63
2022/09/18 08:49:51;;;;;;;9.50;2.10;;;;;;;13.42;99.97;101444.59;5031282;28;20049;-63
2022/09/18 08:52:21;;;;;;;10.27;2.30;;;;;;;13.45;100.00;101446.06;5029857;28;20025;-63
2022/09/18 08:55:00;;;;;;;8.45;1.98;;;;;;;13.41;100.00;101450.38;5030107;28;20084;-64
2022/09/18 08:57:38;;;;;;;8.88;2.28;;;;;;;13.38;100.00;101439.78;5030036;28;20419;-63
2022/09/18 09:00:16;;;;;;;8.75;2.45;;;;;;;13.40;100.00;101435.72;5029503;28;20029;-63
2022/09/18 09:02:48;;;;;;;;;;;;;;;13.50;100.00;101436.00;5029038;28;20037;-63
2022/09/18 09:05:17;;;;;;;10.20;2.25;;;;;;;13.57;100.00;101435.06;5030935;28;19913;-65
2022/09/18 09:08:21;;;;;;;10.35;2.05;;;;;;;13.73;100.00;101446.25;5030140;28;20091;-63
2022/09/18 09:11:01;;;;;;;7.82;1.75;;;;;;;13.74;100.00;101449.88;5028893;28;20725;-64
2022/09/18 09:13:39;;;;;;;11.48;2.75;;;;;;;13.67;100.00;101440.84;5030531;28;20022;-63
2022/09/18 09:16:13;;;;;;;9.90;2.75;;;;;;;13.57;99.29;101448.84;5029766;28;20096;-63
2022/09/18 09:19:01;;;;;;;9.55;2.08;;;;;;;13.52;100.00;101457.00;5030673;28;20041;-63
2022/09/18 09:21:58;;;;;;;7.78;2.03;;;;;;;13.42;100.00;101458.41;5028787;28;20432;-63
2022/09/18 09:24:43;;;;;;;7.35;2.13;;;;;;;13.31;100.00;101452.84;5027331;28;20045;-64
2022/09/18 09:27:41;;;;;;;11.23;2.10;;;;;;;13.35;100.00;101445.78;5026232;28;20045;-64
2022/09/18 09:30:17;;;;;;;9.65;2.30;;;;;;;13.39;100.00;101449.78;5001532;28;20045;-64
2022/09/18 09:33:01;;;;;;;12.13;2.65;;;;;;;13.52;100.00;101454.25;5029769;28;20492;-65
2022/09/18 09:35:35;;;;;;;9.40;2.30;;;;;;;13.46;100.00;101451.34;5030022;28;20034;-63
2022/09/18 09:38:24;;;;;;;9.10;2.28;;;;;;;13.42;100.00;101455.66;5029692;28;20037;-63
2022/09/18 09:40:52;;;;;;;9.52;2.10;;;;;;;13.43;100.00;101449.06;5026189;28;20423;-64
2022/09/18 09:43:32;;;;;;;10.23;2.60;;;;;;;13.41;100.00;101442.09;5029376;28;20091;-63
2022/09/18 09:46:08;;;;;;;11.63;3.25;;;;;;;13.45;100.00;101446.06;5028537;28;20025;-63
2022/09/18 09:48:43;;;;;;;5.35;1.70;;;;;;;13.41;99.09;101436.56;5029766;28;20033;-63
2022/09/18 09:51:21;;;;;;;4.13;1.50;;;;;;;13.27;98.17;101435.91;5025653;28;20530;-63
2022/09/18 09:53:46;;;;;;;9.30;1.77;;;;;;;13.17;98.97;101427.34;5028681;28;20187;-64
2022/09/18 09:56:41;;;;;;;6.50;2.88;;;;;;;13.29;99.83;101416.41;5027767;28;20544;-63
2022/09/18 09:59:28;;;;;;;7.30;1.52;;;;;;;13.22;97.57;101421.97;5028113;28;20128;-64
2022/09/18 10:02:21;;;;;;;6.30;1.50;;;;;;;13.42;99.35;101413.41;5028182;28;20084;-64
2022/09/18 10:05:19;;;;;;;7.00;1.70;;;;;;;13.48;96.71;101416.09;5026584;28;20129;-63
2022/09/18 10:08:14;;;;;;;11.35;1.40;;;;;;;13.59;96.71;101416.34;5017986;28;20045;-63
2022/09/18 10:10:48;;;;;;;5.32;1.60;;;;;;;13.59;96.08;101408.91;5023446;28;20029;-66
2022/09/18 10:13:24;;;;;;;7.50;2.20;;;;;;;13.69;95.38;101411.09;5029567;28;20036;-64
2022/09/18 10:15:56;;;;;;;7.35;2.15;;;;;;;13.87;94.73;101405.47;5025316;28;20091;-64
2022/09/18 10:18:25;;;;;;;8.00;1.20;;;;;;;14.19;93.92;101399.56;5028322;28;20715;-63
2022/09/18 10:20:58;;;;;;;5.95;1.40;;;;;;;14.41;92.43;101399.81;5028800;28;20064;-63
2022/09/18 10:23:29;;;;;;;10.23;1.92;;;;;;;14.43;90.51;101405.91;5028492;28;20022;-64
2022/09/18 10:25:58;;;;;;;4.88;1.38;;;;;;;14.50;92.54;101404.75;5027177;28;20025;-64
2022/09/18 10:28:28;;;;;;;5.00;1.50;;;;;;;14.64;91.27;101408.06;5026530;28;20571;-63
2022/09/18 10:31:11;;;;;;;6.43;1.55;;;;;;;14.63;90.70;101408.31;5027552;28;20388;-63
2022/09/18 10:33:39;;;;;;;6.25;1.38;;;;;;;14.46;90.22;101417.34;5028186;28;20376;-64
2022/09/18 10:36:16;;;;;;;9.23;1.73;;;;;;;14.45;90.92;101420.34;5026949;28;20048;-64
2022/09/18 10:38:41;;;;;;;4.47;1.88;;;;;;;14.43;90.01;101411.44;5028036;28;20037;-64
2022/09/18 10:41:17;;;;;;;8.15;1.42;;;;;;;14.32;89.59;101415.91;5027506;28;20085;-63
2022/09/18 10:43:59;;;;;;;5.97;1.38;;;;;;;14.13;90.88;101431.75;5027868;28;20034;-65
2022/09/18 10:46:32;;;;;;;6.43;1.35;;;;;;;13.87;89.69;101426.72;5027102;28;20025;-63
2022/09/18 10:49:02;;;;;;;4.13;1.10;;;;;;;13.61;92.07;101439.03;5028461;28;20057;-63
2022/09/18 10:51:28;;;;;;;4.32;1.00;;;;;;;13.31;91.48;101444.56;5027266;28;20683;-64
2022/09/18 10:54:14;;;;;;;4.93;1.02;;;;;;;13.03;88.38;101443.25;5027435;28;20030;-63
2022/09/18 10:56:39;;;;;;;5.03;1.02;;;;;;;12.73;90.91;101440.44;5028180;28;20096;-63
2022/09/18 10:59:31;;;;;;;2.05;0.90;;;;;;;12.67;93.51;101436.69;5025815;28;20048;-63
2022/09/18 11:01:59;;;;;;;4.05;1.02;;;;;;;12.60;95.32;101424.88;5027113;28;20471;-63
2022/09/18 11:04:26;;;;;;;3.90;1.08;;;;;;;12.69;96.01;101422.69;5028436;28;20449;-63
2022/09/18 11:06:52;;;;;;;3.10;0.93;;;;;;;12.83;96.82;101428.88;5024082;28;20537;-65
2022/09/18 11:09:24;;;;;;;3.65;1.38;;;;;;;12.97;98.06;101431.19;5024152;28;20033;-63
2022/09/18 11:11:50;;;;;;;5.47;1.20;;;;;;;13.10;97.03;101424.66;5027224;28;20113;-63
2022/09/18 11:14:29;;;;;;;3.60;1.08;;;;;;;13.19;96.94;101433.47;5027801;28;20124;-63
2022/09/18 11:16:57;;;;;;;5.75;1.63;;;;;;;13.24;94.95;101428.13;5025493;28;20033;-63
2022/09/18 11:19:30;;;;;;;;;;;;;;;13.42;95.50;101428.03;5027160;28;20068;-64
2022/09/18 11:22:00;;;;;;;9.50;1.48;;;;;;;13.44;93.97;101423.16;5026475;28;20016;-63
2022/09/18 11:24:30;;;;;;;5.82;1.23;;;;;;;13.43;93.69;101435.28;5019511;28;20037;-63
2022/09/18 11:26:57;;;;;;;6.15;1.20;;;;;;;13.44;93.73;101433.34;5023120;28;20033;-65
2022/09/18 11:29:29;;;;;;;8.88;1.50;;;;;;;13.47;95.08;101436.47;5024493;28;20032;-64